Time;durP1;ratioP1;P1;durP2;ratioP2;P2;SDS_P1;SDS_P2;PMS_P1;PMS_P2;Temp;Humidity;BMP_temperature;BMP_pressure;BME280_temperature;BME280_humidity;BME280_pressure;Samples;Min_cycle;Max_cycle;Signal;HPM_P1;HPM_P2
2022/10/17 00:00:34;;;;;;;10.60;4.32;;;;;;;;;;5012297;28;20025;-85
2022/10/17 00:03:00;;;;;;;8.83;4.03;;;;;;;;;;5030286;28;20033;-85
2022/10/17 00:05:25;;;;;;;6.57;4.28;;;;;;;;;;5014472;28;20273;-85
2022/10/17 00:07:51;;;;;;;13.05;4.05;;;;;;;;;;5014565;28;20097;-85
2022/10/17 00:10:16;;;;;;;9.15;3.97;;;;;;;;;;5015908;28;20017;-86
2022/10/17 00:12:41;;;;;;;5.90;3.35;;;;;;;;;;5014777;28;20385;-86
2022/10/17 00:15:07;;;;;;;13.47;3.90;;;;;;;;;;5030753;28;20610;-86
2022/10/17 00:17:33;;;;;;;9.65;4.05;;;;;;;;;;5005134;28;20269;-87
2022/10/17 00:19:58;;;;;;;13.40;4.35;;;;;;;;;;5017163;28;20014;-85
2022/10/17 00:22:24;;;;;;;11.23;3.97;;;;;;;;;;5013578;28;20065;-86
2022/10/17 00:24:49;;;;;;;9.63;5.10;;;;;;;;;;5014217;28;20433;-85
2022/10/17 00:27:14;;;;;;;7.25;4.07;;;;;;;;;;5012511;28;20272;-86
2022/10/17 00:29:39;;;;;;;7.30;4.30;;;;;;;;;;5014594;28;20543;-86
2022/10/17 00:32:04;;;;;;;13.45;4.97;;;;;;;;;;5037426;28;20304;-86
2022/10/17 00:34:30;;;;;;;11.20;5.20;;;;;;;;;;5015227;28;20397;-85
2022/10/17 00:36:55;;;;;;;9.30;4.13;;;;;;;;;;5013252;28;20477;-87
2022/10/17 00:39:20;;;;;;;6.32;3.88;;;;;;;;;;5008670;28;20311;-86
2022/10/17 00:41:45;;;;;;;6.13;3.45;;;;;;;;;;5013891;28;20469;-87
2022/10/17 00:44:40;;;;;;;5.50;3.80;;;;;;;;;;5011755;28;20026;-86
2022/10/17 00:47:09;;;;;;;4.60;3.38;;;;;;;;;;5015141;28;20092;-86
2022/10/17 00:49:35;;;;;;;8.20;3.78;;;;;;;;;;5009373;28;20045;-85
2022/10/17 00:52:03;;;;;;;6.00;3.47;;;;;;;;;;5029749;28;20129;-87
2022/10/17 00:54:33;;;;;;;7.18;4.03;;;;;;;;;;5026564;28;20018;-86
2022/10/17 00:56:59;;;;;;;8.13;3.90;;;;;;;;;;5031042;28;20033;-85
2022/10/17 00:59:25;;;;;;;5.97;3.58;;;;;;;;;;5019976;28;20026;-85
2022/10/17 01:01:52;;;;;;;9.30;3.83;;;;;;;;;;5012226;28;20109;-86
2022/10/17 01:04:18;;;;;;;6.47;3.55;;;;;;;;;;5008998;28;20432;-85
2022/10/17 01:06:43;;;;;;;7.82;3.83;;;;;;;;;;5013094;28;20105;-86
2022/10/17 01:09:08;;;;;;;7.13;3.80;;;;;;;;;;5032302;28;20064;-87
2022/10/17 01:11:36;;;;;;;8.38;3.47;;;;;;;;;;5013608;28;20306;-85
2022/10/17 01:14:06;;;;;;;7.75;3.38;;;;;;;;;;5011787;28;20041;-87
2022/10/17 01:16:50;;;;;;;7.70;3.67;;;;;;;;;;5009361;28;20037;-86
2022/10/17 01:19:28;;;;;;;7.75;3.90;;;;;;;;;;5037524;28;20036;-86
2022/10/17 01:21:58;;;;;;;8.00;4.00;;;;;;;;;;5009876;28;20022;-86
2022/10/17 01:24:23;;;;;;;;;;;;;;;;;;5012179;28;20097;-86
2022/10/17 01:27:10;;;;;;;9.20;3.47;;;;;;;;;;5012790;28;19955;-86
2022/10/17 01:29:51;;;;;;;6.75;3.67;;;;;;;;;;5014335;28;20766;-86
2022/10/17 01:32:19;;;;;;;6.55;3.70;;;;;;;;;;5013822;28;20405;-85
2022/10/17 01:34:47;;;;;;;8.52;4.35;;;;;;;;;;5010405;28;20025;-86
2022/10/17 01:37:13;;;;;;;9.15;3.40;;;;;;;;;;5025374;28;20022;-86
2022/10/17 01:39:42;;;;;;;7.28;3.05;;;;;;;;;;5011787;28;20991;-86
2022/10/17 01:42:13;;;;;;;10.82;3.45;;;;;;;;;;5018158;28;20030;-86
2022/10/17 01:44:48;;;;;;;8.48;3.50;;;;;;;;;;5011171;28;20022;-86
2022/10/17 01:47:19;;;;;;;11.05;4.57;;;;;;;;;;5018048;28;20048;-85
2022/10/17 01:49:45;;;;;;;9.38;3.60;;;;;;;;;;5032954;28;20026;-86
2022/10/17 01:52:13;;;;;;;8.55;3.60;;;;;;;;;;5007379;28;20083;-86
2022/10/17 01:54:41;;;;;;;8.27;3.47;;;;;;;;;;5016182;28;20022;-88
2022/10/17 01:57:10;;;;;;;12.75;3.70;;;;;;;;;;5026127;28;20027;-84
2022/10/17 01:59:39;;;;;;;19.02;3.63;;;;;;;;;;5035822;28;20010;-84
2022/10/17 02:02:05;;;;;;;9.32;3.65;;;;;;;;;;5030368;28;20030;-85
2022/10/17 02:04:30;;;;;;;6.43;3.50;;;;;;;;;;5031742;28;20026;-84
2022/10/17 02:06:56;;;;;;;8.93;3.88;;;;;;;;;;5021389;28;20018;-87
2022/10/17 02:09:25;;;;;;;5.88;3.22;;;;;;;;;;5026266;28;20116;-86
2022/10/17 02:12:03;;;;;;;7.82;3.97;;;;;;;;;;5039749;23;20399;-64
2022/10/17 02:14:28;;;;;;;7.60;3.33;;;;;;;;;;4987462;28;20034;-64
2022/10/17 02:16:53;;;;;;;9.15;3.55;;;;;;;;;;4990821;28;20022;-64
2022/10/17 02:19:42;;;;;;;6.27;3.80;;;;;;;;;;4989636;28;20108;-64
2022/10/17 02:22:10;;;;;;;8.55;3.08;;;;;;;;;;4993898;28;20765;-64
2022/10/17 02:24:41;;;;;;;5.93;3.05;;;;;;;;;;5005921;28;20409;-64
2022/10/17 02:27:21;;;;;;;8.88;3.70;;;;;;;;;;4996639;28;20025;-64
2022/10/17 02:29:46;;;;;;;;;;;;;;;;;;4990137;28;20042;-64
2022/10/17 02:32:20;;;;;;;12.30;3.77;;;;;;;;;;4994942;28;20006;-64
2022/10/17 02:34:47;;;;;;;6.50;3.10;;;;;;;;;;5001744;28;20664;-64
2022/10/17 02:37:13;;;;;;;13.05;3.53;;;;;;;;;;4996123;28;20040;-64
2022/10/17 02:39:39;;;;;;;7.97;3.03;;;;;;;;;;4988178;28;20038;-63
2022/10/17 02:42:06;;;;;;;11.70;3.35;;;;;;;;;;4994114;28;20022;-63
2022/10/17 02:44:31;;;;;;;7.20;3.60;;;;;;;;;;4995252;28;20023;-64
2022/10/17 02:47:10;;;;;;;6.18;2.83;;;;;;;;;;4990425;28;20077;-64
2022/10/17 02:49:38;;;;;;;7.60;2.72;;;;;;;;;;4989027;28;20254;-64
2022/10/17 02:52:29;;;;;;;9.43;3.17;;;;;;;;;;4992394;28;20509;-64
2022/10/17 02:55:05;;;;;;;12.80;3.67;;;;;;;;;;4974555;28;20494;-64
2022/10/17 02:57:33;;;;;;;6.10;3.38;;;;;;;;;;4989669;28;20022;-64
2022/10/17 02:59:59;;;;;;;18.80;3.53;;;;;;;;;;4990640;28;20018;-64
2022/10/17 03:02:25;;;;;;;8.50;2.60;;;;;;;;;;4993297;28;20049;-64
2022/10/17 03:04:50;;;;;;;7.57;3.13;;;;;;;;;;4990253;28;20379;-64
2022/10/17 03:07:15;;;;;;;6.90;3.42;;;;;;;;;;4989794;28;20502;-64
2022/10/17 03:09:40;;;;;;;4.97;3.00;;;;;;;;;;4989130;28;20076;-64
2022/10/17 03:12:05;;;;;;;8.07;3.70;;;;;;;;;;4994030;28;20077;-64
2022/10/17 03:14:31;;;;;;;7.60;3.30;;;;;;;;;;4995351;28;20451;-64
2022/10/17 03:16:56;;;;;;;9.93;3.40;;;;;;;;;;4990266;28;20273;-64
2022/10/17 03:19:21;;;;;;;5.53;2.93;;;;;;;;;;4989884;28;20061;-64
2022/10/17 03:21:46;;;;;;;6.83;3.37;;;;;;;;;;4992266;28;20010;-64
2022/10/17 03:24:11;;;;;;;9.30;3.67;;;;;;;;;;4995921;28;20383;-64
2022/10/17 03:26:37;;;;;;;8.93;3.10;;;;;;;;;;4990170;28;20076;-64
2022/10/17 03:29:02;;;;;;;7.80;3.03;;;;;;;;;;4990412;28;20269;-64
2022/10/17 03:31:27;;;;;;;5.90;2.83;;;;;;;;;;4991967;28;20030;-64
2022/10/17 03:33:52;;;;;;;12.97;3.33;;;;;;;;;;4993695;28;20050;-64
2022/10/17 03:36:18;;;;;;;7.30;2.93;;;;;;;;;;4993285;28;20037;-64
2022/10/17 03:38:44;;;;;;;8.88;3.38;;;;;;;;;;4993408;28;20168;-64
2022/10/17 03:41:10;;;;;;;5.80;2.58;;;;;;;;;;4991935;28;20037;-64
2022/10/17 03:43:35;;;;;;;5.10;3.17;;;;;;;;;;4996328;28;20018;-64
2022/10/17 03:46:01;;;;;;;17.15;3.67;;;;;;;;;;4993363;28;20027;-64
2022/10/17 03:48:27;;;;;;;9.15;3.33;;;;;;;;;;4991968;28;20105;-64
2022/10/17 03:50:57;;;;;;;8.48;2.65;;;;;;;;;;4992289;28;20022;-64
2022/10/17 03:53:22;;;;;;;4.43;3.00;;;;;;;;;;4992201;28;20436;-64
2022/10/17 03:55:47;;;;;;;11.00;3.70;;;;;;;;;;4991656;28;20061;-64
2022/10/17 03:58:12;;;;;;;11.80;6.33;;;;;;;;;;4992782;28;20022;-64
2022/10/17 04:00:38;;;;;;;6.10;3.67;;;;;;;;;;4992021;28;20149;-64
2022/10/17 04:03:03;;;;;;;8.27;4.33;;;;;;;;;;4994394;28;20295;-64
2022/10/17 04:05:28;;;;;;;4.33;2.00;;;;;;;;;;4993474;28;20109;-64
2022/10/17 04:07:53;;;;;;;6.50;3.03;;;;;;;;;;4992060;28;20269;-64
2022/10/17 04:10:18;;;;;;;6.43;3.10;;;;;;;;;;4993171;28;20114;-64
2022/10/17 04:12:44;;;;;;;8.87;2.97;;;;;;;;;;4990257;28;20277;-64
2022/10/17 04:15:09;;;;;;;7.40;2.87;;;;;;;;;;4997085;28;20830;-64
2022/10/17 04:17:34;;;;;;;5.75;3.17;;;;;;;;;;4993099;28;20349;-64
2022/10/17 04:19:59;;;;;;;5.22;2.33;;;;;;;;;;4992790;28;20109;-64
2022/10/17 04:22:25;;;;;;;14.27;2.97;;;;;;;;;;4989713;28;20058;-64
2022/10/17 04:24:50;;;;;;;2.65;2.08;;;;;;;;;;4991298;28;20041;-64
2022/10/17 04:27:15;;;;;;;7.57;2.23;;;;;;;;;;4990661;28;20022;-64
2022/10/17 04:29:41;;;;;;;5.20;2.63;;;;;;;;;;4992197;28;20714;-64
2022/10/17 04:32:06;;;;;;;19.45;3.17;;;;;;;;;;4991218;28;20018;-64
2022/10/17 04:34:31;;;;;;;2.28;1.55;;;;;;;;;;4992160;28;20034;-64
2022/10/17 04:36:56;;;;;;;12.47;2.93;;;;;;;;;;4992202;28;20084;-64
2022/10/17 04:39:21;;;;;;;12.23;3.30;;;;;;;;;;4990725;28;20282;-64
2022/10/17 04:41:47;;;;;;;7.10;3.17;;;;;;;;;;4991422;28;20297;-64
2022/10/17 04:44:12;;;;;;;4.75;3.10;;;;;;;;;;4990005;28;20286;-64
2022/10/17 04:46:38;;;;;;;2.90;1.88;;;;;;;;;;4997313;28;20072;-64
2022/10/17 04:49:03;;;;;;;5.63;2.90;;;;;;;;;;4997386;28;20431;-64
2022/10/17 04:51:28;;;;;;;6.18;3.17;;;;;;;;;;4996825;28;20492;-64
2022/10/17 04:53:53;;;;;;;9.20;2.90;;;;;;;;;;4999072;28;20406;-64
2022/10/17 04:56:20;;;;;;;8.80;3.43;;;;;;;;;;4993369;28;20033;-64
2022/10/17 04:58:45;;;;;;;7.32;3.28;;;;;;;;;;5005279;28;20292;-64
2022/10/17 05:01:12;;;;;;;7.32;2.92;;;;;;;;;;4995924;28;20033;-64
2022/10/17 05:03:37;;;;;;;8.63;3.55;;;;;;;;;;4998246;28;20030;-64
2022/10/17 05:06:06;;;;;;;10.63;3.50;;;;;;;;;;4999286;28;20398;-64
2022/10/17 05:08:31;;;;;;;19.05;4.20;;;;;;;;;;4995612;28;20014;-64
2022/10/17 05:10:56;;;;;;;7.97;3.47;;;;;;;;;;5003589;28;20493;-64
2022/10/17 05:13:22;;;;;;;5.88;3.22;;;;;;;;;;4987463;28;20297;-64
2022/10/17 05:15:47;;;;;;;7.50;3.07;;;;;;;;;;4999188;28;20475;-64
2022/10/17 05:18:12;;;;;;;7.60;3.60;;;;;;;;;;4998012;28;20328;-64
2022/10/17 05:20:37;;;;;;;9.75;3.13;;;;;;;;;;4996854;28;20282;-64
2022/10/17 05:23:02;;;;;;;6.40;3.20;;;;;;;;;;4994793;28;20034;-64
2022/10/17 05:25:28;;;;;;;5.67;2.63;;;;;;;;;;5001160;28;20652;-64
2022/10/17 05:27:53;;;;;;;12.02;3.83;;;;;;;;;;4991460;28;20772;-64
2022/10/17 05:30:18;;;;;;;6.80;3.50;;;;;;;;;;4999309;28;20145;-64
2022/10/17 05:32:43;;;;;;;11.32;4.25;;;;;;;;;;4996741;28;20288;-64
2022/10/17 05:35:09;;;;;;;5.13;3.20;;;;;;;;;;5000992;28;20022;-64
2022/10/17 05:37:34;;;;;;;10.82;3.97;;;;;;;;;;4989050;28;20273;-64
2022/10/17 05:39:59;;;;;;;9.60;3.43;;;;;;;;;;5000944;28;20036;-64
2022/10/17 05:42:24;;;;;;;7.60;3.37;;;;;;;;;;4995877;28;20280;-64
2022/10/17 05:44:49;;;;;;;3.42;1.75;;;;;;;;;;4988469;28;20045;-64
2022/10/17 05:47:15;;;;;;;10.63;4.20;;;;;;;;;;4986460;28;20356;-64
2022/10/17 05:49:40;;;;;;;6.20;3.17;;;;;;;;;;4994997;28;20277;-64
2022/10/17 05:52:05;;;;;;;18.27;3.27;;;;;;;;;;4989593;28;20274;-64
2022/10/17 05:54:30;;;;;;;13.77;3.50;;;;;;;;;;4988735;28;20277;-64
2022/10/17 05:56:56;;;;;;;13.07;3.65;;;;;;;;;;4989614;28;20076;-64
2022/10/17 05:59:23;;;;;;;9.70;3.50;;;;;;;;;;4988732;28;20155;-65
2022/10/17 06:01:48;;;;;;;19.83;3.38;;;;;;;;;;4989342;28;20284;-65
2022/10/17 06:04:13;;;;;;;11.07;4.10;;;;;;;;;;4989437;28;20022;-65
2022/10/17 06:06:39;;;;;;;7.30;2.60;;;;;;;;;;4988737;28;20022;-64
2022/10/17 06:09:04;;;;;;;16.67;3.80;;;;;;;;;;4989788;28;20023;-64
2022/10/17 06:11:29;;;;;;;5.95;4.10;;;;;;;;;;4989887;28;20054;-65
2022/10/17 06:13:54;;;;;;;6.15;3.08;;;;;;;;;;4988976;28;20065;-65
2022/10/17 06:16:20;;;;;;;10.23;2.97;;;;;;;;;;4989020;28;20029;-65
2022/10/17 06:18:45;;;;;;;6.50;3.17;;;;;;;;;;4986134;28;20318;-65
2022/10/17 06:21:11;;;;;;;8.13;3.22;;;;;;;;;;4985679;28;20450;-65
2022/10/17 06:23:36;;;;;;;16.15;3.83;;;;;;;;;;4985154;28;20467;-64
2022/10/17 06:26:02;;;;;;;7.93;3.95;;;;;;;;;;4986378;28;20033;-65
2022/10/17 06:28:28;;;;;;;5.22;3.05;;;;;;;;;;4987039;28;20097;-65
2022/10/17 06:30:53;;;;;;;8.63;3.33;;;;;;;;;;4989601;28;20098;-65
2022/10/17 06:33:19;;;;;;;7.32;2.25;;;;;;;;;;4990688;28;20080;-64
2022/10/17 06:35:49;;;;;;;5.53;3.50;;;;;;;;;;4989001;28;20018;-65
2022/10/17 06:38:14;;;;;;;6.47;3.15;;;;;;;;;;4987797;28;20042;-65
2022/10/17 06:40:40;;;;;;;5.00;2.83;;;;;;;;;;4989125;28;20442;-65
2022/10/17 06:43:05;;;;;;;9.80;3.23;;;;;;;;;;4990610;28;20341;-65
2022/10/17 06:45:30;;;;;;;7.20;3.20;;;;;;;;;;4988197;28;20266;-64
2022/10/17 06:47:55;;;;;;;10.37;3.63;;;;;;;;;;4989672;28;20050;-64
2022/10/17 06:50:20;;;;;;;15.20;3.53;;;;;;;;;;4994704;28;20277;-65
2022/10/17 06:52:49;;;;;;;10.67;3.53;;;;;;;;;;4988165;28;20273;-65
2022/10/17 06:55:14;;;;;;;6.13;3.40;;;;;;;;;;4987149;28;20277;-65
2022/10/17 06:57:39;;;;;;;13.23;4.33;;;;;;;;;;4988742;28;20032;-65
2022/10/17 07:00:05;;;;;;;17.60;4.13;;;;;;;;;;4991678;28;20705;-65
2022/10/17 07:02:30;;;;;;;7.93;3.33;;;;;;;;;;4989515;28;20054;-65
2022/10/17 07:04:55;;;;;;;14.00;4.20;;;;;;;;;;4991053;28;20038;-65
2022/10/17 07:07:20;;;;;;;8.77;2.83;;;;;;;;;;4992620;28;20269;-65
2022/10/17 07:09:46;;;;;;;5.22;1.67;;;;;;;;;;4993385;28;20466;-65
2022/10/17 07:12:11;;;;;;;12.88;3.42;;;;;;;;;;4991827;28;20034;-65
2022/10/17 07:14:36;;;;;;;3.17;1.60;;;;;;;;;;4992575;28;20030;-65
2022/10/17 07:17:02;;;;;;;5.20;3.30;;;;;;;;;;4991029;28;20022;-65
2022/10/17 07:19:27;;;;;;;6.85;3.20;;;;;;;;;;4993820;28;20026;-65
2022/10/17 07:21:53;;;;;;;1.57;1.00;;;;;;;;;;4992761;28;20033;-65
2022/10/17 07:24:18;;;;;;;4.97;2.78;;;;;;;;;;4992040;28;20321;-65
2022/10/17 07:26:43;;;;;;;6.03;1.97;;;;;;;;;;4996631;28;20023;-65
2022/10/17 07:29:08;;;;;;;9.07;3.20;;;;;;;;;;4991558;28;20412;-65
2022/10/17 07:31:34;;;;;;;9.83;2.90;;;;;;;;;;4992844;28;20058;-65
2022/10/17 07:33:59;;;;;;;1.77;1.30;;;;;;;;;;4992220;28;20630;-65
2022/10/17 07:36:24;;;;;;;7.65;2.00;;;;;;;;;;4991969;28;20762;-65
2022/10/17 07:38:49;;;;;;;4.30;1.45;;;;;;;;;;4993885;28;20026;-65
2022/10/17 07:41:15;;;;;;;7.47;2.73;;;;;;;;;;4993382;28;20038;-65
2022/10/17 07:43:41;;;;;;;7.53;3.00;;;;;;;;;;4993463;28;20289;-65
2022/10/17 07:46:07;;;;;;;7.80;3.90;;;;;;;;;;4989842;28;20273;-65
2022/10/17 07:48:32;;;;;;;10.48;2.70;;;;;;;;;;4994109;28;20029;-65
2022/10/17 07:51:00;;;;;;;5.17;2.77;;;;;;;;;;4993612;28;20026;-65
2022/10/17 07:53:25;;;;;;;6.20;2.47;;;;;;;;;;4989990;28;20030;-65
2022/10/17 07:55:51;;;;;;;5.03;2.23;;;;;;;;;;4992120;28;20352;-65
2022/10/17 07:58:16;;;;;;;2.75;1.70;;;;;;;;;;4998248;28;20084;-65
2022/10/17 08:00:41;;;;;;;1.85;1.08;;;;;;;;;;4991443;28;20027;-65
2022/10/17 08:03:07;;;;;;;5.22;1.98;;;;;;;;;;4993139;28;20030;-65
2022/10/17 08:05:33;;;;;;;3.58;1.23;;;;;;;;;;4990009;28;20022;-65
2022/10/17 08:07:58;;;;;;;10.10;2.33;;;;;;;;;;4992746;28;20483;-65
2022/10/17 08:10:28;;;;;;;9.95;2.50;;;;;;;;;;4996077;28;20474;-65
2022/10/17 08:12:54;;;;;;;8.80;2.20;;;;;;;;;;4991944;28;20081;-66
2022/10/17 08:15:19;;;;;;;5.03;2.00;;;;;;;;;;4988114;28;20045;-65
2022/10/17 08:17:44;;;;;;;2.95;1.40;;;;;;;;;;4991809;28;20041;-65
2022/10/17 08:20:10;;;;;;;11.77;2.37;;;;;;;;;;4995930;28;20026;-65
2022/10/17 08:22:35;;;;;;;3.78;2.50;;;;;;;;;;4992346;28;20316;-65
2022/10/17 08:25:00;;;;;;;5.37;2.40;;;;;;;;;;4991763;28;20026;-65
2022/10/17 08:27:27;;;;;;;4.17;2.17;;;;;;;;;;4992025;28;20393;-65
2022/10/17 08:29:53;;;;;;;4.72;1.83;;;;;;;;;;4991339;28;20745;-65
2022/10/17 08:32:23;;;;;;;4.95;2.00;;;;;;;;;;4996933;28;20025;-65
2022/10/17 08:34:49;;;;;;;7.35;2.50;;;;;;;;;;4983931;28;20054;-65
2022/10/17 08:37:14;;;;;;;2.30;1.33;;;;;;;;;;4992877;28;20415;-65
2022/10/17 08:39:40;;;;;;;8.52;1.88;;;;;;;;;;4990794;28;20030;-65
2022/10/17 08:42:11;;;;;;;4.38;1.63;;;;;;;;;;4990616;28;20022;-65
2022/10/17 08:44:54;;;;;;;3.72;1.42;;;;;;;;;;4991442;28;20022;-65
2022/10/17 08:47:22;;;;;;;9.32;2.38;;;;;;;;;;4991028;28;20018;-65
2022/10/17 08:49:51;;;;;;;6.60;1.65;;;;;;;;;;4990566;28;20034;-65
2022/10/17 08:52:29;;;;;;;2.33;1.42;;;;;;;;;;4992037;28;20049;-65
2022/10/17 08:54:54;;;;;;;2.47;1.40;;;;;;;;;;4990066;28;20022;-65
2022/10/17 08:57:19;;;;;;;5.70;2.30;;;;;;;;;;4989144;28;20080;-65
2022/10/17 08:59:49;;;;;;;3.67;1.45;;;;;;;;;;4990952;28;20129;-65
2022/10/17 09:02:14;;;;;;;6.13;1.95;;;;;;;;;;4988609;28;20471;-65
2022/10/17 09:05:00;;;;;;;4.63;2.40;;;;;;;;;;4990092;28;20045;-65
2022/10/17 09:07:25;;;;;;;10.85;2.35;;;;;;;;;;4991664;28;20402;-65
2022/10/17 09:10:03;;;;;;;8.30;2.33;;;;;;;;;;4991544;28;20021;-65
2022/10/17 09:12:47;;;;;;;9.98;2.15;;;;;;;;;;4991768;28;20053;-65
2022/10/17 09:15:18;;;;;;;8.48;2.05;;;;;;;;;;4989393;28;20101;-65
2022/10/17 09:17:51;;;;;;;6.75;2.40;;;;;;;;;;4991432;28;20078;-65
2022/10/17 09:20:24;;;;;;;12.55;2.20;;;;;;;;;;4988410;28;20411;-65
2022/10/17 09:22:59;;;;;;;4.15;2.05;;;;;;;;;;4982721;28;20030;-65
2022/10/17 09:25:25;;;;;;;10.60;1.85;;;;;;;;;;4990750;28;20049;-65
2022/10/17 09:27:52;;;;;;;6.68;2.30;;;;;;;;;;4988213;28;20018;-65
2022/10/17 09:30:26;;;;;;;3.97;2.40;;;;;;;;;;4988462;28;20027;-65
2022/10/17 09:32:52;;;;;;;4.15;1.85;;;;;;;;;;4992356;28;20746;-65
2022/10/17 09:35:18;;;;;;;4.82;2.53;;;;;;;;;;4990280;28;20026;-65
2022/10/17 09:37:44;;;;;;;3.25;1.35;;;;;;;;;;4988996;28;20018;-65
2022/10/17 09:40:15;;;;;;;9.27;2.78;;;;;;;;;;4986967;28;20050;-65
2022/10/17 09:42:40;;;;;;;11.02;2.60;;;;;;;;;;4993016;28;20026;-65
2022/10/17 09:45:24;;;;;;;13.10;2.53;;;;;;;;;;5010669;28;20080;-65
2022/10/17 09:48:09;;;;;;;12.02;2.80;;;;;;;;;;5011617;28;20037;-65
2022/10/17 09:50:34;;;;;;;5.80;2.15;;;;;;;;;;5011310;28;20033;-65
2022/10/17 09:53:01;;;;;;;6.70;2.10;;;;;;;;;;5011423;28;20014;-65
2022/10/17 09:55:37;;;;;;;5.57;2.30;;;;;;;;;;5004375;28;20034;-65
2022/10/17 09:58:04;;;;;;;3.88;2.42;;;;;;;;;;5009225;28;20025;-65
2022/10/17 10:00:31;;;;;;;5.97;1.73;;;;;;;;;;5011102;28;20064;-65
2022/10/17 10:03:09;;;;;;;8.48;2.45;;;;;;;;;;5011131;28;20537;-65
2022/10/17 10:05:35;;;;;;;3.28;1.55;;;;;;;;;;5009248;28;20097;-65
2022/10/17 10:08:04;;;;;;;10.23;2.33;;;;;;;;;;5006789;28;20122;-65
2022/10/17 10:10:30;;;;;;;10.50;2.40;;;;;;;;;;5010005;28;20014;-65
2022/10/17 10:13:14;;;;;;;2.58;1.48;;;;;;;;;;5005083;28;20022;-65
2022/10/17 10:15:41;;;;;;;7.13;2.35;;;;;;;;;;5005417;28;20391;-65
2022/10/17 10:18:24;;;;;;;11.68;3.05;;;;;;;;;;5006256;28;20360;-65
2022/10/17 10:21:01;;;;;;;8.55;2.88;;;;;;;;;;5010802;28;20041;-65
2022/10/17 10:23:27;;;;;;;6.15;2.63;;;;;;;;;;5006693;28;20022;-65
2022/10/17 10:25:57;;;;;;;8.67;2.50;;;;;;;;;;5009433;28;20041;-65
2022/10/17 10:28:24;;;;;;;6.82;2.47;;;;;;;;;;5010992;28;20315;-65
2022/10/17 10:30:51;;;;;;;7.43;2.40;;;;;;;;;;5009558;28;20048;-65
2022/10/17 10:33:18;;;;;;;5.55;2.20;;;;;;;;;;5010520;28;20021;-65
2022/10/17 10:35:50;;;;;;;9.40;2.15;;;;;;;;;;5005207;28;20431;-65
2022/10/17 10:38:16;;;;;;;11.20;2.63;;;;;;;;;;5009248;28;20022;-65
2022/10/17 10:40:46;;;;;;;3.70;2.47;;;;;;;;;;5005468;28;20468;-65
2022/10/17 10:43:23;;;;;;;13.95;4.10;;;;;;;;;;4995368;28;20018;-65
2022/10/17 10:45:48;;;;;;;5.47;1.83;;;;;;;;;;4989723;28;20014;-65
2022/10/17 10:48:24;;;;;;;5.72;2.58;;;;;;;;;;5006490;28;20288;-65
2022/10/17 10:50:52;;;;;;;8.88;1.88;;;;;;;;;;5009704;28;20026;-66
2022/10/17 10:53:28;;;;;;;12.27;3.22;;;;;;;;;;4998948;28;20018;-65
2022/10/17 10:55:55;;;;;;;2.95;2.08;;;;;;;;;;4988015;28;20027;-65
2022/10/17 10:58:38;;;;;;;7.60;3.10;;;;;;;;;;4983498;28;20034;-65
2022/10/17 11:01:05;;;;;;;4.15;1.85;;;;;;;;;;4984851;28;20450;-65
2022/10/17 11:03:34;;;;;;;6.63;2.50;;;;;;;;;;4988197;28;20117;-65
2022/10/17 11:06:03;;;;;;;12.93;2.63;;;;;;;;;;4987626;28;20037;-65
2022/10/17 11:08:42;;;;;;;10.25;2.90;;;;;;;;;;4987840;28;20046;-65
2022/10/17 11:11:16;;;;;;;3.30;2.60;;;;;;;;;;4987728;28;20022;-65
2022/10/17 11:14:02;;;;;;;10.27;2.70;;;;;;;;;;4988458;28;20049;-65
2022/10/17 11:17:00;;;;;;;9.27;2.75;;;;;;;;;;4987624;28;20038;-66
2022/10/17 11:19:35;;;;;;;10.35;3.35;;;;;;;;;;4955015;28;20054;-66
2022/10/17 11:22:00;;;;;;;6.28;3.15;;;;;;;;;;4982585;28;20109;-66
2022/10/17 11:24:32;;;;;;;7.43;2.83;;;;;;;;;;4987068;28;20109;-66
2022/10/17 11:26:59;;;;;;;6.57;3.17;;;;;;;;;;4984211;28;20392;-66
2022/10/17 11:29:28;;;;;;;14.57;3.10;;;;;;;;;;4995380;28;20121;-66
2022/10/17 11:31:55;;;;;;;8.23;2.88;;;;;;;;;;4991995;28;20037;-66
2022/10/17 11:34:24;;;;;;;6.72;2.60;;;;;;;;;;4988826;28;20019;-66
2022/10/17 11:36:51;;;;;;;9.15;2.95;;;;;;;;;;4987930;28;20026;-66
2022/10/17 11:39:40;;;;;;;5.72;2.65;;;;;;;;;;4988999;28;20030;-66
2022/10/17 11:42:09;;;;;;;7.00;2.97;;;;;;;;;;4988950;28;20053;-66
2022/10/17 11:44:35;;;;;;;6.47;2.80;;;;;;;;;;4988219;28;20470;-66
2022/10/17 11:47:06;;;;;;;10.15;3.47;;;;;;;;;;4987851;28;20185;-66
2022/10/17 11:49:34;;;;;;;8.27;3.10;;;;;;;;;;4985732;28;20039;-66
2022/10/17 11:52:12;;;;;;;10.43;3.22;;;;;;;;;;4990247;28;20105;-66
2022/10/17 11:54:40;;;;;;;9.40;3.75;;;;;;;;;;4991341;28;20024;-66
2022/10/17 11:57:05;;;;;;;9.55;2.90;;;;;;;;;;4993355;28;20105;-66
2022/10/17 11:59:41;;;;;;;7.93;2.95;;;;;;;;;;4990722;28;20189;-66
2022/10/17 12:02:19;;;;;;;6.70;3.03;;;;;;;;;;4987895;28;20394;-66
2022/10/17 12:04:55;;;;;;;5.97;2.83;;;;;;;;;;4986981;28;20022;-66
2022/10/17 12:07:36;;;;;;;8.90;3.00;;;;;;;;;;4991676;28;20054;-66
2022/10/17 12:10:16;;;;;;;11.02;3.47;;;;;;;;;;4988802;28;20577;-66
2022/10/17 12:12:42;;;;;;;7.90;3.00;;;;;;;;;;4991480;28;20022;-66
2022/10/17 12:15:19;;;;;;;8.57;3.05;;;;;;;;;;4992185;28;20467;-66
2022/10/17 12:17:55;;;;;;;4.00;2.83;;;;;;;;;;4993178;28;20475;-66
2022/10/17 12:20:22;;;;;;;11.88;2.80;;;;;;;;;;4995427;28;20049;-66
2022/10/17 12:22:48;;;;;;;8.65;2.65;;;;;;;;;;4989646;28;20105;-66
2022/10/17 12:25:17;;;;;;;12.30;3.42;;;;;;;;;;4993139;28;20101;-66
2022/10/17 12:27:44;;;;;;;8.18;3.38;;;;;;;;;;4989541;28;20046;-66
2022/10/17 12:30:26;;;;;;;7.07;3.03;;;;;;;;;;4990873;28;20502;-66
2022/10/17 12:33:02;;;;;;;8.20;2.90;;;;;;;;;;4987549;28;20443;-66
2022/10/17 12:35:28;;;;;;;10.50;3.22;;;;;;;;;;4991760;28;20109;-66
2022/10/17 12:37:53;;;;;;;10.57;3.20;;;;;;;;;;4991867;28;20113;-66
2022/10/17 12:40:33;;;;;;;8.13;2.80;;;;;;;;;;4991211;28;20101;-66
2022/10/17 12:42:58;;;;;;;;;;;;;;;;;;4995991;28;20057;-66
2022/10/17 12:45:43;;;;;;;17.15;4.28;;;;;;;;;;4997137;28;19913;-66
2022/10/17 12:48:08;;;;;;;28.95;4.78;;;;;;;;;;4987875;28;20026;-66
2022/10/17 12:50:52;;;;;;;7.25;2.92;;;;;;;;;;4990134;28;20024;-66
2022/10/17 12:53:19;;;;;;;8.93;3.22;;;;;;;;;;4990096;28;20483;-66
2022/10/17 12:55:44;;;;;;;8.88;3.75;;;;;;;;;;4992204;28;20022;-66
2022/10/17 12:58:13;;;;;;;9.07;3.20;;;;;;;;;;4992889;28;20045;-66
2022/10/17 13:00:41;;;;;;;5.90;3.13;;;;;;;;;;4992714;28;20287;-66
2022/10/17 13:03:23;;;;;;;8.95;3.10;;;;;;;;;;4989245;28;20023;-66
2022/10/17 13:05:57;;;;;;;13.30;3.95;;;;;;;;;;4991657;28;20011;-66
2022/10/17 13:08:30;;;;;;;9.55;3.45;;;;;;;;;;4990845;28;20021;-65
2022/10/17 13:10:56;;;;;;;13.57;3.45;;;;;;;;;;4990786;28;20364;-65
2022/10/17 13:13:21;;;;;;;7.60;3.13;;;;;;;;;;4990148;28;20101;-65
2022/10/17 13:15:47;;;;;;;5.83;2.87;;;;;;;;;;4990850;28;20464;-65
2022/10/17 13:18:17;;;;;;;7.03;3.65;;;;;;;;;;4987277;28;20355;-65
2022/10/17 13:20:42;;;;;;;14.10;3.70;;;;;;;;;;4989306;28;20022;-65
2022/10/17 13:23:21;;;;;;;9.97;4.10;;;;;;;;;;4988783;28;20391;-65
2022/10/17 13:25:46;;;;;;;8.88;3.08;;;;;;;;;;4989393;28;20257;-65
2022/10/17 13:28:12;;;;;;;10.57;3.90;;;;;;;;;;4991410;28;20137;-65
2022/10/17 13:30:37;;;;;;;9.40;3.50;;;;;;;;;;4991781;28;20262;-65
2022/10/17 13:33:14;;;;;;;16.23;5.15;;;;;;;;;;4989907;28;20052;-65
2022/10/17 13:35:40;;;;;;;17.92;4.20;;;;;;;;;;4988938;28;20040;-65
2022/10/17 13:38:06;;;;;;;7.15;3.13;;;;;;;;;;4991452;28;20034;-65
2022/10/17 13:40:37;;;;;;;8.38;3.53;;;;;;;;;;4989198;28;20083;-65
2022/10/17 13:43:04;;;;;;;12.35;3.83;;;;;;;;;;4990809;28;20038;-65
2022/10/17 13:45:35;;;;;;;10.27;3.75;;;;;;;;;;4988758;28;20033;-65
2022/10/17 13:48:02;;;;;;;11.68;3.92;;;;;;;;;;4988542;28;20022;-65
2022/10/17 13:50:32;;;;;;;8.25;4.32;;;;;;;;;;4989537;28;20026;-65
2022/10/17 13:52:57;;;;;;;;;;;;;;;;;;4990314;28;20011;-65
2022/10/17 13:55:22;;;;;;;6.90;3.72;;;;;;;;;;4990867;28;19917;-65
2022/10/17 13:57:48;;;;;;;6.65;3.10;;;;;;;;;;4990821;28;20027;-65
2022/10/17 14:00:20;;;;;;;13.95;6.45;;;;;;;;;;4990316;28;20049;-65
2022/10/17 14:02:47;;;;;;;20.90;4.32;;;;;;;;;;4988505;28;20175;-65
2022/10/17 14:05:13;;;;;;;9.48;4.80;;;;;;;;;;4989911;28;20025;-65
2022/10/17 14:07:48;;;;;;;7.00;3.72;;;;;;;;;;4993309;28;20026;-65
2022/10/17 14:10:18;;;;;;;5.93;3.42;;;;;;;;;;4989596;28;20022;-65
2022/10/17 14:12:43;;;;;;;12.23;3.58;;;;;;;;;;4989043;28;20111;-65
2022/10/17 14:15:12;;;;;;;10.07;4.32;;;;;;;;;;4988417;28;20483;-65
2022/10/17 14:17:38;;;;;;;15.43;3.80;;;;;;;;;;4989062;28;20487;-65
2022/10/17 14:20:04;;;;;;;9.43;3.88;;;;;;;;;;4989104;28;20053;-65
2022/10/17 14:22:32;;;;;;;10.05;4.20;;;;;;;;;;4987103;28;20030;-65
2022/10/17 14:24:57;;;;;;;11.38;3.50;;;;;;;;;;4994155;28;20113;-65
2022/10/17 14:27:24;;;;;;;8.43;3.93;;;;;;;;;;4990426;28;20074;-65
2022/10/17 14:29:51;;;;;;;18.67;3.75;;;;;;;;;;4989498;28;20269;-65
2022/10/17 14:32:16;;;;;;;8.57;3.60;;;;;;;;;;4989848;28;20088;-65
2022/10/17 14:34:42;;;;;;;6.43;3.67;;;;;;;;;;4988880;28;20115;-65
2022/10/17 14:37:11;;;;;;;21.20;4.03;;;;;;;;;;4990090;28;20027;-65
2022/10/17 14:39:37;;;;;;;13.23;3.20;;;;;;;;;;4989726;28;20065;-65
2022/10/17 14:42:02;;;;;;;16.30;4.03;;;;;;;;;;4989799;28;20027;-65
2022/10/17 14:44:29;;;;;;;8.80;3.70;;;;;;;;;;4988348;28;20032;-65
2022/10/17 14:46:56;;;;;;;7.50;3.67;;;;;;;;;;4989162;28;20293;-65